sensor_id;sensor_type;location;lat;lon;timestamp;P1;durP1;ratioP1;P2;durP2;ratioP2
69523;SDS011;56723;42.694;23.286;2023-02-26T06:10:32;15.65;;;2.70;;
69523;SDS011;56723;42.694;23.286;2023-02-26T06:12:59;24.95;;;3.42;;
69523;SDS011;56723;42.694;23.286;2023-02-26T06:15:26;14.75;;;1.85;;
69523;SDS011;56723;42.694;23.286;2023-02-26T06:17:53;10.43;;;1.98;;
69523;SDS011;56723;42.694;23.286;2023-02-26T06:20:20;26.52;;;2.80;;
69523;SDS011;56723;42.694;23.286;2023-02-26T06:22:47;15.65;;;2.83;;
69523;SDS011;56723;42.694;23.286;2023-02-26T06:25:14;12.93;;;2.50;;
69523;SDS011;56723;42.694;23.286;2023-02-26T06:27:41;14.52;;;2.30;;
69523;SDS011;56723;42.694;23.286;2023-02-26T06:30:08;18.90;;;2.70;;
69523;SDS011;56723;42.694;23.286;2023-02-26T06:32:39;16.27;;;2.53;;
69523;SDS011;56723;42.694;23.286;2023-02-26T06:35:06;17.92;;;2.67;;
69523;SDS011;56723;42.694;23.286;2023-02-26T06:37:33;16.77;;;3.35;;
69523;SDS011;56723;42.694;23.286;2023-02-26T06:40:00;14.30;;;2.13;;
69523;SDS011;56723;42.694;23.286;2023-02-26T06:42:27;16.30;;;2.10;;
69523;SDS011;56723;42.694;23.286;2023-02-26T06:44:54;19.10;;;3.42;;
69523;SDS011;56723;42.694;23.286;2023-02-26T06:47:22;18.48;;;1.75;;
69523;SDS011;56723;42.694;23.286;2023-02-26T06:49:50;16.80;;;2.83;;
69523;SDS011;56723;42.694;23.286;2023-02-26T06:52:17;10.20;;;1.77;;
69523;SDS011;56723;42.694;23.286;2023-02-26T06:54:44;13.40;;;2.03;;
69523;SDS011;56723;42.694;23.286;2023-02-26T06:57:11;17.60;;;2.85;;
69523;SDS011;56723;42.694;23.286;2023-02-26T06:59:38;16.83;;;2.83;;
69523;SDS011;56723;42.694;23.286;2023-02-26T07:02:05;18.17;;;2.35;;
69523;SDS011;56723;42.694;23.286;2023-02-26T07:04:32;14.57;;;2.22;;
69523;SDS011;56723;42.694;23.286;2023-02-26T07:06:59;21.75;;;3.38;;
69523;SDS011;56723;42.694;23.286;2023-02-26T07:09:26;18.42;;;2.55;;
69523;SDS011;56723;42.694;23.286;2023-02-26T07:11:53;17.67;;;2.35;;
69523;SDS011;56723;42.694;23.286;2023-02-26T07:14:19;10.60;;;2.28;;
69523;SDS011;56723;42.694;23.286;2023-02-26T07:16:46;12.50;;;2.70;;
69523;SDS011;56723;42.694;23.286;2023-02-26T07:19:13;17.05;;;2.40;;
69523;SDS011;56723;42.694;23.286;2023-02-26T07:21:40;17.10;;;2.53;;
69523;SDS011;56723;42.694;23.286;2023-02-26T07:24:07;15.55;;;2.65;;
69523;SDS011;56723;42.694;23.286;2023-02-26T07:26:34;15.00;;;2.38;;
69523;SDS011;56723;42.694;23.286;2023-02-26T07:29:01;12.50;;;2.55;;
69523;SDS011;56723;42.694;23.286;2023-02-26T07:31:28;12.30;;;2.72;;
69523;SDS011;56723;42.694;23.286;2023-02-26T07:33:55;13.70;;;2.22;;
69523;SDS011;56723;42.694;23.286;2023-02-26T07:36:23;12.10;;;2.03;;
69523;SDS011;56723;42.694;23.286;2023-02-26T07:38:50;23.15;;;3.20;;
69523;SDS011;56723;42.694;23.286;2023-02-26T07:41:17;12.57;;;2.95;;
69523;SDS011;56723;42.694;23.286;2023-02-26T07:43:44;19.08;;;2.92;;
69523;SDS011;56723;42.694;23.286;2023-02-26T07:46:12;18.80;;;2.92;;
69523;SDS011;56723;42.694;23.286;2023-02-26T07:48:39;14.48;;;2.75;;
69523;SDS011;56723;42.694;23.286;2023-02-26T07:51:07;16.75;;;2.38;;
69523;SDS011;56723;42.694;23.286;2023-02-26T07:53:34;12.38;;;3.05;;
69523;SDS011;56723;42.694;23.286;2023-02-26T07:56:01;7.70;;;1.50;;
69523;SDS011;56723;42.694;23.286;2023-02-26T07:58:30;13.70;;;1.95;;
69523;SDS011;56723;42.694;23.286;2023-02-26T08:00:57;16.00;;;3.15;;
69523;SDS011;56723;42.694;23.286;2023-02-26T08:03:24;15.85;;;2.03;;
69523;SDS011;56723;42.694;23.286;2023-02-26T08:05:51;14.82;;;2.67;;
69523;SDS011;56723;42.694;23.286;2023-02-26T08:08:18;16.17;;;2.30;;
69523;SDS011;56723;42.694;23.286;2023-02-26T08:10:45;11.68;;;2.30;;
69523;SDS011;56723;42.694;23.286;2023-02-26T08:13:12;13.95;;;2.58;;
69523;SDS011;56723;42.694;23.286;2023-02-26T08:15:39;13.10;;;2.38;;
69523;SDS011;56723;42.694;23.286;2023-02-26T08:18:09;16.77;;;2.55;;
69523;SDS011;56723;42.694;23.286;2023-02-26T08:20:37;16.30;;;2.72;;
69523;SDS011;56723;42.694;23.286;2023-02-26T08:23:04;14.52;;;3.10;;
69523;SDS011;56723;42.694;23.286;2023-02-26T08:25:31;15.20;;;3.80;;
69523;SDS011;56723;42.694;23.286;2023-02-26T08:27:58;16.98;;;2.40;;
69523;SDS011;56723;42.694;23.286;2023-02-26T08:30:25;15.05;;;3.17;;
69523;SDS011;56723;42.694;23.286;2023-02-26T08:32:52;18.02;;;3.05;;
69523;SDS011;56723;42.694;23.286;2023-02-26T08:35:19;14.50;;;2.00;;
69523;SDS011;56723;42.694;23.286;2023-02-26T08:37:47;21.60;;;3.10;;
69523;SDS011;56723;42.694;23.286;2023-02-26T08:40:14;14.63;;;2.67;;
69523;SDS011;56723;42.694;23.286;2023-02-26T08:42:41;15.23;;;2.92;;
69523;SDS011;56723;42.694;23.286;2023-02-26T08:45:08;8.25;;;2.20;;
69523;SDS011;56723;42.694;23.286;2023-02-26T08:47:35;15.45;;;2.53;;
69523;SDS011;56723;42.694;23.286;2023-02-26T08:50:14;23.42;;;2.80;;
69523;SDS011;56723;42.694;23.286;2023-02-26T08:52:41;11.77;;;2.03;;
69523;SDS011;56723;42.694;23.286;2023-02-26T08:55:08;12.93;;;2.63;;
69523;SDS011;56723;42.694;23.286;2023-02-26T08:57:36;16.35;;;2.97;;
69523;SDS011;56723;42.694;23.286;2023-02-26T09:00:03;13.93;;;2.63;;
69523;SDS011;56723;42.694;23.286;2023-02-26T09:02:36;24.38;;;3.58;;
69523;SDS011;56723;42.694;23.286;2023-02-26T09:05:04;18.75;;;2.80;;
69523;SDS011;56723;42.694;23.286;2023-02-26T09:07:31;21.52;;;2.80;;
69523;SDS011;56723;42.694;23.286;2023-02-26T09:09:58;15.93;;;3.10;;
69523;SDS011;56723;42.694;23.286;2023-02-26T09:12:25;15.73;;;3.67;;
69523;SDS011;56723;42.694;23.286;2023-02-26T09:14:52;17.80;;;3.08;;
69523;SDS011;56723;42.694;23.286;2023-02-26T09:17:19;15.35;;;3.05;;
69523;SDS011;56723;42.694;23.286;2023-02-26T09:19:46;15.02;;;3.03;;
69523;SDS011;56723;42.694;23.286;2023-02-26T09:22:13;10.55;;;2.15;;
69523;SDS011;56723;42.694;23.286;2023-02-26T09:24:40;16.83;;;3.97;;
69523;SDS011;56723;42.694;23.286;2023-02-26T09:27:07;17.08;;;2.92;;
69523;SDS011;56723;42.694;23.286;2023-02-26T09:29:34;12.48;;;3.33;;
69523;SDS011;56723;42.694;23.286;2023-02-26T09:32:01;21.42;;;4.22;;
69523;SDS011;56723;42.694;23.286;2023-02-26T09:34:30;17.40;;;4.55;;
69523;SDS011;56723;42.694;23.286;2023-02-26T09:36:57;23.60;;;6.80;;
69523;SDS011;56723;42.694;23.286;2023-02-26T09:39:24;23.67;;;7.28;;
69523;SDS011;56723;42.694;23.286;2023-02-26T09:41:53;24.05;;;7.82;;
69523;SDS011;56723;42.694;23.286;2023-02-26T09:44:28;21.70;;;7.72;;
69523;SDS011;56723;42.694;23.286;2023-02-26T09:52:39;20.48;;;5.70;;
69523;SDS011;56723;42.694;23.286;2023-02-26T09:57:53;19.15;;;5.65;;
69523;SDS011;56723;42.694;23.286;2023-02-26T10:03:33;15.35;;;2.92;;
69523;SDS011;56723;42.694;23.286;2023-02-26T10:14:33;11.85;;;3.35;;
69523;SDS011;56723;42.694;23.286;2023-02-26T10:17:06;12.60;;;3.35;;
69523;SDS011;56723;42.694;23.286;2023-02-26T10:19:44;15.65;;;3.55;;
69523;SDS011;56723;42.694;23.286;2023-02-26T10:22:27;17.20;;;3.95;;
69523;SDS011;56723;42.694;23.286;2023-02-26T10:25:19;13.48;;;3.47;;
69523;SDS011;56723;42.694;23.286;2023-02-26T10:30:35;19.58;;;2.88;;
69523;SDS011;56723;42.694;23.286;2023-02-26T10:33:11;12.93;;;3.28;;
69523;SDS011;56723;42.694;23.286;2023-02-26T10:35:54;17.95;;;3.42;;
69523;SDS011;56723;42.694;23.286;2023-02-26T10:38:28;12.30;;;3.13;;
69523;SDS011;56723;42.694;23.286;2023-02-26T10:40:59;16.27;;;3.10;;
69523;SDS011;56723;42.694;23.286;2023-02-26T10:43:42;16.90;;;3.15;;
69523;SDS011;56723;42.694;23.286;2023-02-26T10:46:23;12.98;;;3.03;;
69523;SDS011;56723;42.694;23.286;2023-02-26T10:51:51;14.18;;;3.55;;
69523;SDS011;56723;42.694;23.286;2023-02-26T10:54:28;15.10;;;3.53;;
69523;SDS011;56723;42.694;23.286;2023-02-26T10:57:00;15.43;;;3.28;;
69523;SDS011;56723;42.694;23.286;2023-02-26T10:59:27;13.40;;;3.10;;
69523;SDS011;56723;42.694;23.286;2023-02-26T11:01:54;18.45;;;3.00;;
69523;SDS011;56723;42.694;23.286;2023-02-26T11:04:24;12.07;;;3.25;;
69523;SDS011;56723;42.694;23.286;2023-02-26T11:06:56;10.00;;;3.53;;
69523;SDS011;56723;42.694;23.286;2023-02-26T11:09:27;12.45;;;2.88;;
69523;SDS011;56723;42.694;23.286;2023-02-26T11:14:35;14.68;;;2.78;;
69523;SDS011;56723;42.694;23.286;2023-02-26T11:17:03;14.88;;;3.70;;
69523;SDS011;56723;42.694;23.286;2023-02-26T11:19:41;12.93;;;2.85;;
69523;SDS011;56723;42.694;23.286;2023-02-26T11:22:15;14.23;;;3.22;;
69523;SDS011;56723;42.694;23.286;2023-02-26T11:24:45;9.73;;;3.47;;
69523;SDS011;56723;42.694;23.286;2023-02-26T11:27:16;12.02;;;2.35;;
69523;SDS011;56723;42.694;23.286;2023-02-26T11:29:47;14.45;;;3.15;;
69523;SDS011;56723;42.694;23.286;2023-02-26T11:32:22;13.52;;;2.58;;
69523;SDS011;56723;42.694;23.286;2023-02-26T11:34:56;12.93;;;2.45;;
69523;SDS011;56723;42.694;23.286;2023-02-26T11:37:27;7.38;;;1.92;;
69523;SDS011;56723;42.694;23.286;2023-02-26T11:39:57;15.35;;;3.20;;
69523;SDS011;56723;42.694;23.286;2023-02-26T11:42:25;11.98;;;2.45;;
69523;SDS011;56723;42.694;23.286;2023-02-26T11:44:53;14.77;;;2.47;;
69523;SDS011;56723;42.694;23.286;2023-02-26T11:47:24;17.58;;;2.80;;
69523;SDS011;56723;42.694;23.286;2023-02-26T11:49:55;11.93;;;2.80;;
69523;SDS011;56723;42.694;23.286;2023-02-26T11:52:34;14.80;;;2.85;;
69523;SDS011;56723;42.694;23.286;2023-02-26T11:55:19;9.88;;;2.60;;
69523;SDS011;56723;42.694;23.286;2023-02-26T11:57:52;14.30;;;3.25;;
69523;SDS011;56723;42.694;23.286;2023-02-26T12:00:25;6.93;;;2.03;;
69523;SDS011;56723;42.694;23.286;2023-02-26T12:03:03;12.98;;;3.30;;
69523;SDS011;56723;42.694;23.286;2023-02-26T12:05:41;14.60;;;2.58;;
69523;SDS011;56723;42.694;23.286;2023-02-26T12:19:45;9.88;;;2.13;;
69523;SDS011;56723;42.694;23.286;2023-02-26T12:22:26;11.38;;;2.28;;
69523;SDS011;56723;42.694;23.286;2023-02-26T12:32:56;15.95;;;3.63;;
69523;SDS011;56723;42.694;23.286;2023-02-26T12:38:24;14.40;;;2.83;;
69523;SDS011;56723;42.694;23.286;2023-02-26T12:44:09;14.77;;;3.20;;
69523;SDS011;56723;42.694;23.286;2023-02-26T12:49:53;13.60;;;3.00;;
69523;SDS011;56723;42.694;23.286;2023-02-26T12:58:04;16.52;;;2.70;;
69523;SDS011;56723;42.694;23.286;2023-02-26T13:06:28;18.15;;;3.58;;
69523;SDS011;56723;42.694;23.286;2023-02-26T13:19:51;11.38;;;3.38;;
69523;SDS011;56723;42.694;23.286;2023-02-26T13:22:27;13.63;;;3.17;;
69523;SDS011;56723;42.694;23.286;2023-02-26T13:25:15;7.75;;;2.30;;
69523;SDS011;56723;42.694;23.286;2023-02-26T13:27:43;13.35;;;2.75;;
69523;SDS011;56723;42.694;23.286;2023-02-26T13:30:22;16.20;;;3.53;;
69523;SDS011;56723;42.694;23.286;2023-02-26T13:32:56;15.43;;;2.92;;
69523;SDS011;56723;42.694;23.286;2023-02-26T13:35:26;13.38;;;3.03;;
69523;SDS011;56723;42.694;23.286;2023-02-26T13:38:00;14.50;;;3.20;;
69523;SDS011;56723;42.694;23.286;2023-02-26T13:44:20;13.02;;;2.88;;
69523;SDS011;56723;42.694;23.286;2023-02-26T13:52:21;16.15;;;2.85;;
69523;SDS011;56723;42.694;23.286;2023-02-26T13:54:51;14.25;;;3.17;;
69523;SDS011;56723;42.694;23.286;2023-02-26T13:57:32;14.67;;;3.10;;
69523;SDS011;56723;42.694;23.286;2023-02-26T14:00:01;20.73;;;3.40;;
69523;SDS011;56723;42.694;23.286;2023-02-26T14:02:45;11.75;;;2.55;;
69523;SDS011;56723;42.694;23.286;2023-02-26T14:14:12;14.57;;;2.13;;
69523;SDS011;56723;42.694;23.286;2023-02-26T14:16:43;21.63;;;11.70;;
69523;SDS011;56723;42.694;23.286;2023-02-26T14:19:22;19.05;;;4.20;;
69523;SDS011;56723;42.694;23.286;2023-02-26T14:21:56;26.83;;;8.20;;
69523;SDS011;56723;42.694;23.286;2023-02-26T14:24:31;15.27;;;3.63;;
69523;SDS011;56723;42.694;23.286;2023-02-26T14:29:41;32.88;;;18.05;;
69523;SDS011;56723;42.694;23.286;2023-02-26T14:32:25;16.15;;;4.78;;
69523;SDS011;56723;42.694;23.286;2023-02-26T14:35:18;12.02;;;3.47;;
69523;SDS011;56723;42.694;23.286;2023-02-26T14:37:52;14.10;;;3.30;;
69523;SDS011;56723;42.694;23.286;2023-02-26T14:40:29;15.10;;;3.75;;
69523;SDS011;56723;42.694;23.286;2023-02-26T14:43:02;20.30;;;3.55;;
69523;SDS011;56723;42.694;23.286;2023-02-26T14:45:34;32.88;;;10.95;;
69523;SDS011;56723;42.694;23.286;2023-02-26T14:48:12;13.77;;;3.00;;
69523;SDS011;56723;42.694;23.286;2023-02-26T15:01:48;15.90;;;2.90;;
69523;SDS011;56723;42.694;23.286;2023-02-26T15:18:55;24.40;;;4.90;;
69523;SDS011;56723;42.694;23.286;2023-02-26T15:29:09;36.13;;;5.82;;
69523;SDS011;56723;42.694;23.286;2023-02-26T15:31:43;24.80;;;2.97;;
69523;SDS011;56723;42.694;23.286;2023-02-26T15:34:18;20.92;;;3.80;;
69523;SDS011;56723;42.694;23.286;2023-02-26T15:36:48;13.13;;;2.95;;
69523;SDS011;56723;42.694;23.286;2023-02-26T15:39:20;15.88;;;3.55;;
69523;SDS011;56723;42.694;23.286;2023-02-26T15:41:50;15.27;;;2.50;;
69523;SDS011;56723;42.694;23.286;2023-02-26T15:44:23;16.17;;;2.67;;
69523;SDS011;56723;42.694;23.286;2023-02-26T15:46:55;15.45;;;3.28;;
69523;SDS011;56723;42.694;23.286;2023-02-26T15:49:28;14.05;;;2.83;;
69523;SDS011;56723;42.694;23.286;2023-02-26T15:51:59;16.80;;;4.18;;
69523;SDS011;56723;42.694;23.286;2023-02-26T15:55:13;16.77;;;4.18;;
69523;SDS011;56723;42.694;23.286;2023-02-26T15:57:20;18.73;;;4.75;;
69523;SDS011;56723;42.694;23.286;2023-02-26T15:59:51;18.13;;;3.63;;
69523;SDS011;56723;42.694;23.286;2023-02-26T16:02:21;12.35;;;5.53;;
69523;SDS011;56723;42.694;23.286;2023-02-26T16:04:52;21.95;;;6.93;;
69523;SDS011;56723;42.694;23.286;2023-02-26T16:07:19;15.60;;;8.38;;
69523;SDS011;56723;42.694;23.286;2023-02-26T16:09:47;20.38;;;7.60;;
69523;SDS011;56723;42.694;23.286;2023-02-26T16:12:23;32.58;;;17.60;;
69523;SDS011;56723;42.694;23.286;2023-02-26T16:14:58;18.40;;;8.30;;
69523;SDS011;56723;42.694;23.286;2023-02-26T16:17:27;26.10;;;9.65;;
69523;SDS011;56723;42.694;23.286;2023-02-26T16:19:59;24.92;;;10.40;;
69523;SDS011;56723;42.694;23.286;2023-02-26T16:22:33;23.88;;;10.00;;
69523;SDS011;56723;42.694;23.286;2023-02-26T16:27:53;20.35;;;10.48;;
69523;SDS011;56723;42.694;23.286;2023-02-26T16:30:29;27.77;;;11.98;;
69523;SDS011;56723;42.694;23.286;2023-02-26T16:32:59;27.92;;;12.85;;
69523;SDS011;56723;42.694;23.286;2023-02-26T16:35:36;28.13;;;11.05;;
69523;SDS011;56723;42.694;23.286;2023-02-26T16:38:09;25.73;;;11.43;;
69523;SDS011;56723;42.694;23.286;2023-02-26T16:40:42;24.30;;;11.38;;
69523;SDS011;56723;42.694;23.286;2023-02-26T16:45:49;19.90;;;8.43;;
69523;SDS011;56723;42.694;23.286;2023-02-26T16:48:28;30.80;;;7.90;;
69523;SDS011;56723;42.694;23.286;2023-02-26T16:50:58;22.70;;;6.75;;
69523;SDS011;56723;42.694;23.286;2023-02-26T16:53:43;18.52;;;5.15;;
69523;SDS011;56723;42.694;23.286;2023-02-26T16:56:17;21.23;;;5.75;;
69523;SDS011;56723;42.694;23.286;2023-02-26T17:01:41;20.52;;;7.53;;
69523;SDS011;56723;42.694;23.286;2023-02-26T17:04:18;24.58;;;9.15;;
69523;SDS011;56723;42.694;23.286;2023-02-26T17:06:49;28.63;;;6.20;;
69523;SDS011;56723;42.694;23.286;2023-02-26T17:12:21;20.00;;;6.35;;
69523;SDS011;56723;42.694;23.286;2023-02-26T17:14:55;25.75;;;8.88;;
69523;SDS011;56723;42.694;23.286;2023-02-26T17:17:24;26.65;;;9.07;;
69523;SDS011;56723;42.694;23.286;2023-02-26T17:19:51;22.17;;;9.80;;
69523;SDS011;56723;42.694;23.286;2023-02-26T17:22:21;23.67;;;8.90;;
69523;SDS011;56723;42.694;23.286;2023-02-26T17:24:51;21.15;;;8.25;;
69523;SDS011;56723;42.694;23.286;2023-02-26T17:27:23;16.63;;;7.45;;
69523;SDS011;56723;42.694;23.286;2023-02-26T17:29:58;31.17;;;12.43;;
69523;SDS011;56723;42.694;23.286;2023-02-26T17:32:27;22.55;;;10.25;;
69523;SDS011;56723;42.694;23.286;2023-02-26T17:34:56;33.30;;;9.88;;
69523;SDS011;56723;42.694;23.286;2023-02-26T17:37:24;30.48;;;9.05;;
69523;SDS011;56723;42.694;23.286;2023-02-26T17:39:56;25.20;;;9.60;;
69523;SDS011;56723;42.694;23.286;2023-02-26T17:42:24;28.05;;;10.60;;
69523;SDS011;56723;42.694;23.286;2023-02-26T17:44:52;26.70;;;11.80;;
69523;SDS011;56723;42.694;23.286;2023-02-26T17:47:22;36.80;;;11.75;;
69523;SDS011;56723;42.694;23.286;2023-02-26T17:49:50;25.70;;;10.60;;
69523;SDS011;56723;42.694;23.286;2023-02-26T17:52:19;19.83;;;8.63;;
69523;SDS011;56723;42.694;23.286;2023-02-26T17:54:46;17.23;;;6.82;;
69523;SDS011;56723;42.694;23.286;2023-02-26T17:57:15;22.08;;;8.85;;
69523;SDS011;56723;42.694;23.286;2023-02-26T17:59:44;21.27;;;9.05;;
69523;SDS011;56723;42.694;23.286;2023-02-26T18:02:20;25.98;;;10.38;;
69523;SDS011;56723;42.694;23.286;2023-02-26T18:04:50;19.73;;;8.35;;
69523;SDS011;56723;42.694;23.286;2023-02-26T18:07:18;26.33;;;9.27;;
69523;SDS011;56723;42.694;23.286;2023-02-26T18:09:52;27.05;;;7.47;;
69523;SDS011;56723;42.694;23.286;2023-02-26T18:12:19;17.25;;;6.68;;
69523;SDS011;56723;42.694;23.286;2023-02-26T18:14:48;19.67;;;6.32;;
69523;SDS011;56723;42.694;23.286;2023-02-26T18:17:23;21.02;;;7.05;;
69523;SDS011;56723;42.694;23.286;2023-02-26T18:19:53;22.33;;;8.13;;
69523;SDS011;56723;42.694;23.286;2023-02-26T18:22:20;30.40;;;9.68;;
69523;SDS011;56723;42.694;23.286;2023-02-26T18:24:53;20.70;;;8.90;;
69523;SDS011;56723;42.694;23.286;2023-02-26T18:27:22;20.00;;;7.43;;
69523;SDS011;56723;42.694;23.286;2023-02-26T18:29:51;27.10;;;9.43;;
69523;SDS011;56723;42.694;23.286;2023-02-26T18:32:21;27.65;;;8.30;;
69523;SDS011;56723;42.694;23.286;2023-02-26T18:34:50;19.50;;;8.07;;
69523;SDS011;56723;42.694;23.286;2023-02-26T18:37:23;23.92;;;7.18;;
69523;SDS011;56723;42.694;23.286;2023-02-26T18:39:51;21.25;;;5.97;;
69523;SDS011;56723;42.694;23.286;2023-02-26T18:42:20;26.50;;;6.80;;
69523;SDS011;56723;42.694;23.286;2023-02-26T18:44:49;21.33;;;6.30;;
69523;SDS011;56723;42.694;23.286;2023-02-26T18:47:17;18.48;;;6.68;;
69523;SDS011;56723;42.694;23.286;2023-02-26T18:49:46;23.27;;;7.45;;
69523;SDS011;56723;42.694;23.286;2023-02-26T18:52:15;21.20;;;7.82;;
69523;SDS011;56723;42.694;23.286;2023-02-26T18:54:43;21.75;;;7.80;;
69523;SDS011;56723;42.694;23.286;2023-02-26T18:57:11;26.27;;;7.80;;
69523;SDS011;56723;42.694;23.286;2023-02-26T18:59:38;23.33;;;8.05;;
69523;SDS011;56723;42.694;23.286;2023-02-26T19:02:06;18.48;;;7.43;;
69523;SDS011;56723;42.694;23.286;2023-02-26T19:04:36;19.90;;;6.97;;
69523;SDS011;56723;42.694;23.286;2023-02-26T19:07:03;14.98;;;5.90;;
69523;SDS011;56723;42.694;23.286;2023-02-26T19:09:31;18.20;;;5.85;;
69523;SDS011;56723;42.694;23.286;2023-02-26T19:12:01;19.33;;;7.55;;
69523;SDS011;56723;42.694;23.286;2023-02-26T19:14:31;23.83;;;6.63;;
69523;SDS011;56723;42.694;23.286;2023-02-26T19:16:59;20.90;;;6.90;;
69523;SDS011;56723;42.694;23.286;2023-02-26T19:19:26;22.13;;;6.57;;
69523;SDS011;56723;42.694;23.286;2023-02-26T19:21:54;23.10;;;6.60;;
69523;SDS011;56723;42.694;23.286;2023-02-26T19:24:23;14.55;;;6.75;;
69523;SDS011;56723;42.694;23.286;2023-02-26T19:26:51;20.85;;;8.57;;
69523;SDS011;56723;42.694;23.286;2023-02-26T19:29:18;21.60;;;7.35;;
69523;SDS011;56723;42.694;23.286;2023-02-26T19:31:46;20.83;;;7.35;;
69523;SDS011;56723;42.694;23.286;2023-02-26T19:34:14;15.15;;;6.30;;
69523;SDS011;56723;42.694;23.286;2023-02-26T19:36:41;20.35;;;6.95;;
69523;SDS011;56723;42.694;23.286;2023-02-26T19:39:14;21.27;;;7.40;;
69523;SDS011;56723;42.694;23.286;2023-02-26T19:41:43;20.55;;;7.80;;
69523;SDS011;56723;42.694;23.286;2023-02-26T19:44:12;16.42;;;6.35;;
69523;SDS011;56723;42.694;23.286;2023-02-26T19:46:40;18.42;;;7.18;;
69523;SDS011;56723;42.694;23.286;2023-02-26T19:49:08;20.13;;;8.32;;
69523;SDS011;56723;42.694;23.286;2023-02-26T19:51:36;27.67;;;8.02;;
69523;SDS011;56723;42.694;23.286;2023-02-26T19:54:04;18.98;;;7.03;;
69523;SDS011;56723;42.694;23.286;2023-02-26T19:56:32;15.93;;;6.88;;
69523;SDS011;56723;42.694;23.286;2023-02-26T19:59:00;19.45;;;7.00;;
69523;SDS011;56723;42.694;23.286;2023-02-26T20:01:28;22.45;;;7.97;;
69523;SDS011;56723;42.694;23.286;2023-02-26T20:03:56;25.67;;;11.25;;
69523;SDS011;56723;42.694;23.286;2023-02-26T20:06:24;22.80;;;10.55;;
69523;SDS011;56723;42.694;23.286;2023-02-26T20:08:51;24.35;;;11.30;;
69523;SDS011;56723;42.694;23.286;2023-02-26T20:11:19;32.15;;;12.77;;
69523;SDS011;56723;42.694;23.286;2023-02-26T20:13:46;33.05;;;12.75;;
69523;SDS011;56723;42.694;23.286;2023-02-26T20:16:14;38.95;;;13.95;;
69523;SDS011;56723;42.694;23.286;2023-02-26T20:18:42;38.38;;;16.35;;
69523;SDS011;56723;42.694;23.286;2023-02-26T20:21:12;27.45;;;13.40;;
69523;SDS011;56723;42.694;23.286;2023-02-26T20:23:39;36.97;;;14.83;;
69523;SDS011;56723;42.694;23.286;2023-02-26T20:26:08;43.17;;;21.75;;
69523;SDS011;56723;42.694;23.286;2023-02-26T20:28:37;35.17;;;16.73;;
69523;SDS011;56723;42.694;23.286;2023-02-26T20:31:05;38.22;;;18.90;;
69523;SDS011;56723;42.694;23.286;2023-02-26T20:33:33;27.35;;;11.98;;
69523;SDS011;56723;42.694;23.286;2023-02-26T20:36:03;27.00;;;12.07;;
69523;SDS011;56723;42.694;23.286;2023-02-26T20:38:32;27.50;;;11.68;;
69523;SDS011;56723;42.694;23.286;2023-02-26T20:40:59;26.92;;;11.55;;
69523;SDS011;56723;42.694;23.286;2023-02-26T20:43:27;23.92;;;12.20;;
69523;SDS011;56723;42.694;23.286;2023-02-26T20:45:54;41.63;;;17.30;;
69523;SDS011;56723;42.694;23.286;2023-02-26T20:48:22;36.25;;;15.00;;
69523;SDS011;56723;42.694;23.286;2023-02-26T20:50:49;25.70;;;10.98;;
69523;SDS011;56723;42.694;23.286;2023-02-26T20:55:46;25.25;;;10.10;;
69523;SDS011;56723;42.694;23.286;2023-02-26T20:58:13;22.80;;;8.82;;
69523;SDS011;56723;42.694;23.286;2023-02-26T21:00:41;21.63;;;11.18;;
69523;SDS011;56723;42.694;23.286;2023-02-26T21:03:08;19.27;;;8.00;;
69523;SDS011;56723;42.694;23.286;2023-02-26T21:05:35;14.43;;;6.85;;
69523;SDS011;56723;42.694;23.286;2023-02-26T21:08:04;18.80;;;7.53;;
69523;SDS011;56723;42.694;23.286;2023-02-26T21:10:31;23.35;;;8.30;;
69523;SDS011;56723;42.694;23.286;2023-02-26T21:12:58;22.40;;;8.40;;
69523;SDS011;56723;42.694;23.286;2023-02-26T21:15:25;29.00;;;11.25;;
69523;SDS011;56723;42.694;23.286;2023-02-26T21:17:52;29.38;;;13.38;;
69523;SDS011;56723;42.694;23.286;2023-02-26T21:20:19;33.13;;;14.57;;
69523;SDS011;56723;42.694;23.286;2023-02-26T21:22:47;21.70;;;9.15;;
69523;SDS011;56723;42.694;23.286;2023-02-26T21:25:15;27.48;;;10.70;;
69523;SDS011;56723;42.694;23.286;2023-02-26T21:27:42;26.55;;;12.15;;
69523;SDS011;56723;42.694;23.286;2023-02-26T21:30:09;16.52;;;7.90;;
69523;SDS011;56723;42.694;23.286;2023-02-26T21:32:38;25.00;;;9.80;;
69523;SDS011;56723;42.694;23.286;2023-02-26T21:35:06;20.92;;;8.50;;
69523;SDS011;56723;42.694;23.286;2023-02-26T21:37:34;21.48;;;8.73;;
69523;SDS011;56723;42.694;23.286;2023-02-26T21:40:01;24.60;;;10.00;;
69523;SDS011;56723;42.694;23.286;2023-02-26T21:42:32;27.30;;;11.90;;
69523;SDS011;56723;42.694;23.286;2023-02-26T21:44:59;32.38;;;12.07;;
69523;SDS011;56723;42.694;23.286;2023-02-26T21:47:25;30.98;;;11.82;;
69523;SDS011;56723;42.694;23.286;2023-02-26T21:49:52;26.23;;;11.18;;
69523;SDS011;56723;42.694;23.286;2023-02-26T21:52:19;28.92;;;14.68;;
69523;SDS011;56723;42.694;23.286;2023-02-26T21:54:46;28.50;;;13.95;;
69523;SDS011;56723;42.694;23.286;2023-02-26T21:57:13;29.95;;;12.77;;
69523;SDS011;56723;42.694;23.286;2023-02-26T21:59:40;29.52;;;12.60;;
69523;SDS011;56723;42.694;23.286;2023-02-26T22:02:08;31.88;;;16.45;;
69523;SDS011;56723;42.694;23.286;2023-02-26T22:04:37;41.13;;;21.23;;
69523;SDS011;56723;42.694;23.286;2023-02-26T22:07:04;28.80;;;15.82;;
69523;SDS011;56723;42.694;23.286;2023-02-26T22:09:34;38.40;;;17.20;;
69523;SDS011;56723;42.694;23.286;2023-02-26T22:12:01;36.42;;;19.67;;
69523;SDS011;56723;42.694;23.286;2023-02-26T22:14:28;35.25;;;18.65;;
69523;SDS011;56723;42.694;23.286;2023-02-26T22:16:55;35.85;;;18.83;;
69523;SDS011;56723;42.694;23.286;2023-02-26T22:19:22;27.60;;;10.57;;
69523;SDS011;56723;42.694;23.286;2023-02-26T22:21:49;27.52;;;10.57;;
69523;SDS011;56723;42.694;23.286;2023-02-26T22:24:16;22.70;;;11.40;;
69523;SDS011;56723;42.694;23.286;2023-02-26T22:26:43;23.33;;;10.45;;
69523;SDS011;56723;42.694;23.286;2023-02-26T22:29:12;27.40;;;9.77;;
69523;SDS011;56723;42.694;23.286;2023-02-26T22:31:39;22.33;;;8.68;;
69523;SDS011;56723;42.694;23.286;2023-02-26T22:34:07;23.77;;;8.98;;
69523;SDS011;56723;42.694;23.286;2023-02-26T22:36:34;25.63;;;8.57;;
69523;SDS011;56723;42.694;23.286;2023-02-26T22:39:02;17.42;;;6.22;;
69523;SDS011;56723;42.694;23.286;2023-02-26T22:41:32;18.10;;;6.70;;
69523;SDS011;56723;42.694;23.286;2023-02-26T22:44:00;25.30;;;8.38;;
69523;SDS011;56723;42.694;23.286;2023-02-26T22:46:27;26.77;;;9.15;;
69523;SDS011;56723;42.694;23.286;2023-02-26T22:48:54;24.00;;;9.50;;
69523;SDS011;56723;42.694;23.286;2023-02-26T22:51:22;20.90;;;9.70;;
69523;SDS011;56723;42.694;23.286;2023-02-26T22:53:50;23.85;;;10.18;;
69523;SDS011;56723;42.694;23.286;2023-02-26T22:56:17;19.45;;;6.72;;
69523;SDS011;56723;42.694;23.286;2023-02-26T22:58:44;31.08;;;10.75;;
69523;SDS011;56723;42.694;23.286;2023-02-26T23:01:11;25.02;;;11.05;;
69523;SDS011;56723;42.694;23.286;2023-02-26T23:03:37;21.77;;;8.30;;
69523;SDS011;56723;42.694;23.286;2023-02-26T23:06:05;18.27;;;7.57;;
69523;SDS011;56723;42.694;23.286;2023-02-26T23:08:33;30.13;;;8.82;;
69523;SDS011;56723;42.694;23.286;2023-02-26T23:11:00;26.10;;;8.65;;